sensor_id;sensor_type;location;lat;lon;timestamp;temperature;humidity
31729;DHT22;18309;43.658;1.312;2023-02-15T00:01:37;11.60;96.30
31729;DHT22;18309;43.658;1.312;2023-02-15T00:04:04;11.60;96.30
31729;DHT22;18309;43.658;1.312;2023-02-15T00:06:30;11.60;96.40
31729;DHT22;18309;43.658;1.312;2023-02-15T00:08:56;11.60;96.50
31729;DHT22;18309;43.658;1.312;2023-02-15T00:11:22;11.60;96.50
31729;DHT22;18309;43.658;1.312;2023-02-15T00:14:22;11.60;96.50
31729;DHT22;18309;43.658;1.312;2023-02-15T00:16:49;11.60;96.60
31729;DHT22;18309;43.658;1.312;2023-02-15T00:19:17;11.60;96.60
31729;DHT22;18309;43.658;1.312;2023-02-15T00:21:43;11.60;96.80
31729;DHT22;18309;43.658;1.312;2023-02-15T00:24:11;11.60;96.70
31729;DHT22;18309;43.658;1.312;2023-02-15T00:26:41;11.50;96.70
31729;DHT22;18309;43.658;1.312;2023-02-15T00:29:07;11.50;96.80
31729;DHT22;18309;43.658;1.312;2023-02-15T00:31:33;11.50;96.80
31729;DHT22;18309;43.658;1.312;2023-02-15T00:34:04;11.50;96.80
31729;DHT22;18309;43.658;1.312;2023-02-15T00:36:30;11.50;96.90
31729;DHT22;18309;43.658;1.312;2023-02-15T00:38:56;11.50;96.90
31729;DHT22;18309;43.658;1.312;2023-02-15T00:41:22;11.50;97.00
31729;DHT22;18309;43.658;1.312;2023-02-15T00:43:47;11.50;97.00
31729;DHT22;18309;43.658;1.312;2023-02-15T00:46:13;11.40;97.00
31729;DHT22;18309;43.658;1.312;2023-02-15T00:48:39;11.50;97.10
31729;DHT22;18309;43.658;1.312;2023-02-15T00:51:04;11.50;97.40
31729;DHT22;18309;43.658;1.312;2023-02-15T00:53:30;11.50;97.20
31729;DHT22;18309;43.658;1.312;2023-02-15T00:55:57;11.40;97.20
31729;DHT22;18309;43.658;1.312;2023-02-15T00:58:23;11.40;97.20
31729;DHT22;18309;43.658;1.312;2023-02-15T01:00:49;11.40;97.30
31729;DHT22;18309;43.658;1.312;2023-02-15T01:03:17;11.40;97.30
31729;DHT22;18309;43.658;1.312;2023-02-15T01:05:43;11.40;97.20
31729;DHT22;18309;43.658;1.312;2023-02-15T01:08:08;11.40;97.30
31729;DHT22;18309;43.658;1.312;2023-02-15T01:10:35;11.40;97.30
31729;DHT22;18309;43.658;1.312;2023-02-15T01:13:01;11.40;97.30
31729;DHT22;18309;43.658;1.312;2023-02-15T01:15:28;11.40;97.50
31729;DHT22;18309;43.658;1.312;2023-02-15T01:17:54;11.30;97.40
31729;DHT22;18309;43.658;1.312;2023-02-15T01:20:23;11.30;97.50
31729;DHT22;18309;43.658;1.312;2023-02-15T01:22:49;11.30;97.50
31729;DHT22;18309;43.658;1.312;2023-02-15T01:25:16;11.30;97.60
31729;DHT22;18309;43.658;1.312;2023-02-15T01:27:42;11.30;97.50
31729;DHT22;18309;43.658;1.312;2023-02-15T01:30:09;11.30;97.60
31729;DHT22;18309;43.658;1.312;2023-02-15T01:32:35;11.30;97.60
31729;DHT22;18309;43.658;1.312;2023-02-15T01:35:01;11.30;97.70
31729;DHT22;18309;43.658;1.312;2023-02-15T01:37:26;11.20;97.70
31729;DHT22;18309;43.658;1.312;2023-02-15T01:39:52;11.20;97.70
31729;DHT22;18309;43.658;1.312;2023-02-15T01:42:25;11.20;97.80
31729;DHT22;18309;43.658;1.312;2023-02-15T01:45:05;11.20;97.80
31729;DHT22;18309;43.658;1.312;2023-02-15T01:47:41;11.20;97.80
31729;DHT22;18309;43.658;1.312;2023-02-15T01:50:27;11.20;97.90
31729;DHT22;18309;43.658;1.312;2023-02-15T01:52:55;11.20;97.90
31729;DHT22;18309;43.658;1.312;2023-02-15T01:55:27;11.20;98.00
31729;DHT22;18309;43.658;1.312;2023-02-15T01:57:54;11.20;98.00
31729;DHT22;18309;43.658;1.312;2023-02-15T02:00:20;11.20;97.90
31729;DHT22;18309;43.658;1.312;2023-02-15T02:02:48;11.20;98.00
31729;DHT22;18309;43.658;1.312;2023-02-15T02:05:15;11.10;97.90
31729;DHT22;18309;43.658;1.312;2023-02-15T02:07:45;11.10;98.00
31729;DHT22;18309;43.658;1.312;2023-02-15T02:10:14;11.10;98.10
31729;DHT22;18309;43.658;1.312;2023-02-15T02:12:42;11.10;98.20
31729;DHT22;18309;43.658;1.312;2023-02-15T02:15:09;11.10;98.20
31729;DHT22;18309;43.658;1.312;2023-02-15T02:18:18;11.10;98.30
31729;DHT22;18309;43.658;1.312;2023-02-15T02:34:26;11.00;98.60
31729;DHT22;18309;43.658;1.312;2023-02-15T02:37:08;10.90;98.60
31729;DHT22;18309;43.658;1.312;2023-02-15T02:39:49;11.00;98.70
31729;DHT22;18309;43.658;1.312;2023-02-15T02:42:39;10.90;98.60
31729;DHT22;18309;43.658;1.312;2023-02-15T02:47:57;10.90;98.70
31729;DHT22;18309;43.658;1.312;2023-02-15T02:50:27;10.90;98.50
31729;DHT22;18309;43.658;1.312;2023-02-15T02:52:55;10.90;98.50
31729;DHT22;18309;43.658;1.312;2023-02-15T02:55:31;10.90;98.70
31729;DHT22;18309;43.658;1.312;2023-02-15T03:00:41;10.90;98.50
31729;DHT22;18309;43.658;1.312;2023-02-15T03:06:03;10.80;98.60
31729;DHT22;18309;43.658;1.312;2023-02-15T03:08:37;10.80;98.70
31729;DHT22;18309;43.658;1.312;2023-02-15T03:11:04;10.80;98.40
31729;DHT22;18309;43.658;1.312;2023-02-15T03:13:30;10.70;98.50
31729;DHT22;18309;43.658;1.312;2023-02-15T03:15:57;10.70;98.70
31729;DHT22;18309;43.658;1.312;2023-02-15T03:18:48;10.70;98.80
31729;DHT22;18309;43.658;1.312;2023-02-15T03:21:21;10.70;98.80
31729;DHT22;18309;43.658;1.312;2023-02-15T03:23:54;10.70;98.50
31729;DHT22;18309;43.658;1.312;2023-02-15T03:26:24;10.60;98.20
31729;DHT22;18309;43.658;1.312;2023-02-15T03:28:54;10.50;98.00
31729;DHT22;18309;43.658;1.312;2023-02-15T03:31:23;10.50;97.70
31729;DHT22;18309;43.658;1.312;2023-02-15T03:34:02;10.50;97.60
31729;DHT22;18309;43.658;1.312;2023-02-15T03:36:49;10.40;97.40
31729;DHT22;18309;43.658;1.312;2023-02-15T03:42:26;10.30;97.10
31729;DHT22;18309;43.658;1.312;2023-02-15T03:45:05;10.30;97.00
31729;DHT22;18309;43.658;1.312;2023-02-15T03:47:37;10.20;96.70
31729;DHT22;18309;43.658;1.312;2023-02-15T03:52:55;10.10;96.80
31729;DHT22;18309;43.658;1.312;2023-02-15T03:55:21;10.10;96.60
31729;DHT22;18309;43.658;1.312;2023-02-15T03:57:47;10.00;96.40
31729;DHT22;18309;43.658;1.312;2023-02-15T04:00:35;9.90;96.00
31729;DHT22;18309;43.658;1.312;2023-02-15T04:05:54;9.80;95.80
31729;DHT22;18309;43.658;1.312;2023-02-15T04:08:20;9.80;95.60
31729;DHT22;18309;43.658;1.312;2023-02-15T04:11:06;9.80;95.40
31729;DHT22;18309;43.658;1.312;2023-02-15T04:13:32;9.70;95.40
31729;DHT22;18309;43.658;1.312;2023-02-15T04:15:58;9.60;95.50
31729;DHT22;18309;43.658;1.312;2023-02-15T04:18:42;9.60;95.50
31729;DHT22;18309;43.658;1.312;2023-02-15T04:21:29;9.60;95.60
31729;DHT22;18309;43.658;1.312;2023-02-15T04:24:14;9.50;95.60
31729;DHT22;18309;43.658;1.312;2023-02-15T04:26:59;9.50;95.80
31729;DHT22;18309;43.658;1.312;2023-02-15T04:29:27;9.40;95.70
31729;DHT22;18309;43.658;1.312;2023-02-15T04:31:55;9.40;95.70
31729;DHT22;18309;43.658;1.312;2023-02-15T04:34:20;9.40;95.80
31729;DHT22;18309;43.658;1.312;2023-02-15T04:36:46;9.40;95.80
31729;DHT22;18309;43.658;1.312;2023-02-15T04:39:13;9.30;95.70
31729;DHT22;18309;43.658;1.312;2023-02-15T04:41:39;9.30;95.80
31729;DHT22;18309;43.658;1.312;2023-02-15T04:44:05;9.30;95.70
31729;DHT22;18309;43.658;1.312;2023-02-15T04:46:31;9.20;95.90
31729;DHT22;18309;43.658;1.312;2023-02-15T04:48:57;9.20;95.90
31729;DHT22;18309;43.658;1.312;2023-02-15T04:51:22;9.20;96.00
31729;DHT22;18309;43.658;1.312;2023-02-15T04:53:48;9.20;96.00
31729;DHT22;18309;43.658;1.312;2023-02-15T04:56:14;9.10;96.00
31729;DHT22;18309;43.658;1.312;2023-02-15T04:58:40;9.10;96.00
31729;DHT22;18309;43.658;1.312;2023-02-15T05:01:09;9.10;96.10
31729;DHT22;18309;43.658;1.312;2023-02-15T05:03:35;9.10;96.10
31729;DHT22;18309;43.658;1.312;2023-02-15T05:06:01;9.00;96.10
31729;DHT22;18309;43.658;1.312;2023-02-15T05:08:27;9.00;96.10
31729;DHT22;18309;43.658;1.312;2023-02-15T05:10:54;9.00;96.20
31729;DHT22;18309;43.658;1.312;2023-02-15T05:13:20;9.00;96.20
31729;DHT22;18309;43.658;1.312;2023-02-15T05:15:49;8.90;96.20
31729;DHT22;18309;43.658;1.312;2023-02-15T05:18:17;8.90;96.30
31729;DHT22;18309;43.658;1.312;2023-02-15T05:20:43;8.80;96.40
31729;DHT22;18309;43.658;1.312;2023-02-15T05:23:09;8.80;96.40
31729;DHT22;18309;43.658;1.312;2023-02-15T05:25:35;8.80;96.50
31729;DHT22;18309;43.658;1.312;2023-02-15T05:28:21;8.80;96.50
31729;DHT22;18309;43.658;1.312;2023-02-15T05:33:28;8.80;96.40
31729;DHT22;18309;43.658;1.312;2023-02-15T05:35:53;8.80;96.50
31729;DHT22;18309;43.658;1.312;2023-02-15T05:38:19;8.70;96.50
31729;DHT22;18309;43.658;1.312;2023-02-15T05:40:45;8.70;96.50
31729;DHT22;18309;43.658;1.312;2023-02-15T05:43:11;8.70;96.50
31729;DHT22;18309;43.658;1.312;2023-02-15T05:45:36;8.70;96.50
31729;DHT22;18309;43.658;1.312;2023-02-15T05:48:02;8.70;96.50
31729;DHT22;18309;43.658;1.312;2023-02-15T05:50:28;8.70;96.50
31729;DHT22;18309;43.658;1.312;2023-02-15T05:52:54;8.60;96.50
31729;DHT22;18309;43.658;1.312;2023-02-15T05:55:20;8.60;96.60
31729;DHT22;18309;43.658;1.312;2023-02-15T05:57:45;8.60;96.70
31729;DHT22;18309;43.658;1.312;2023-02-15T06:00:12;8.60;96.60
31729;DHT22;18309;43.658;1.312;2023-02-15T06:02:39;8.60;96.70
31729;DHT22;18309;43.658;1.312;2023-02-15T06:05:06;8.50;96.70
31729;DHT22;18309;43.658;1.312;2023-02-15T06:07:32;8.50;96.70
31729;DHT22;18309;43.658;1.312;2023-02-15T06:09:58;8.50;96.70
31729;DHT22;18309;43.658;1.312;2023-02-15T06:12:23;8.50;96.60
31729;DHT22;18309;43.658;1.312;2023-02-15T06:14:49;8.50;96.70
31729;DHT22;18309;43.658;1.312;2023-02-15T06:17:15;8.50;96.70
31729;DHT22;18309;43.658;1.312;2023-02-15T06:19:42;8.40;96.70
31729;DHT22;18309;43.658;1.312;2023-02-15T06:22:08;8.40;96.70
31729;DHT22;18309;43.658;1.312;2023-02-15T06:24:34;8.40;96.70
31729;DHT22;18309;43.658;1.312;2023-02-15T06:26:59;8.40;96.70
31729;DHT22;18309;43.658;1.312;2023-02-15T06:29:25;8.40;96.80
31729;DHT22;18309;43.658;1.312;2023-02-15T06:31:51;8.30;96.90
31729;DHT22;18309;43.658;1.312;2023-02-15T06:34:17;8.30;97.20
31729;DHT22;18309;43.658;1.312;2023-02-15T06:36:42;8.30;97.30
31729;DHT22;18309;43.658;1.312;2023-02-15T06:39:08;8.10;98.30
31729;DHT22;18309;43.658;1.312;2023-02-15T06:41:34;7.80;99.00
31729;DHT22;18309;43.658;1.312;2023-02-15T06:44:00;7.60;99.70
31729;DHT22;18309;43.658;1.312;2023-02-15T06:46:25;7.50;99.80
31729;DHT22;18309;43.658;1.312;2023-02-15T06:48:51;7.40;99.90
31729;DHT22;18309;43.658;1.312;2023-02-15T06:51:17;7.40;99.90
31729;DHT22;18309;43.658;1.312;2023-02-15T06:53:42;7.40;99.90
31729;DHT22;18309;43.658;1.312;2023-02-15T06:56:10;7.30;99.90
31729;DHT22;18309;43.658;1.312;2023-02-15T06:58:36;7.30;99.90
31729;DHT22;18309;43.658;1.312;2023-02-15T07:01:03;7.30;99.90
31729;DHT22;18309;43.658;1.312;2023-02-15T07:03:29;7.20;99.90
31729;DHT22;18309;43.658;1.312;2023-02-15T07:05:56;7.20;99.90
31729;DHT22;18309;43.658;1.312;2023-02-15T07:08:42;7.20;99.90
31729;DHT22;18309;43.658;1.312;2023-02-15T07:14:57;7.20;99.90
31729;DHT22;18309;43.658;1.312;2023-02-15T07:17:24;7.10;99.90
31729;DHT22;18309;43.658;1.312;2023-02-15T07:19:54;7.20;99.90
31729;DHT22;18309;43.658;1.312;2023-02-15T07:22:19;7.20;99.90
31729;DHT22;18309;43.658;1.312;2023-02-15T07:24:45;7.20;99.90
31729;DHT22;18309;43.658;1.312;2023-02-15T07:27:11;7.20;99.90
31729;DHT22;18309;43.658;1.312;2023-02-15T07:29:36;7.20;99.90
31729;DHT22;18309;43.658;1.312;2023-02-15T07:32:02;7.30;99.90
31729;DHT22;18309;43.658;1.312;2023-02-15T07:34:28;7.30;99.90
31729;DHT22;18309;43.658;1.312;2023-02-15T07:36:54;7.30;99.90
31729;DHT22;18309;43.658;1.312;2023-02-15T07:39:19;7.40;99.90
31729;DHT22;18309;43.658;1.312;2023-02-15T07:41:45;7.40;99.90
31729;DHT22;18309;43.658;1.312;2023-02-15T07:44:13;7.50;99.90
31729;DHT22;18309;43.658;1.312;2023-02-15T07:46:39;7.60;99.90
31729;DHT22;18309;43.658;1.312;2023-02-15T07:49:05;7.60;99.90
31729;DHT22;18309;43.658;1.312;2023-02-15T07:51:30;7.60;99.90
31729;DHT22;18309;43.658;1.312;2023-02-15T07:53:56;7.50;99.90
31729;DHT22;18309;43.658;1.312;2023-02-15T07:56:22;7.30;99.90
31729;DHT22;18309;43.658;1.312;2023-02-15T07:58:47;7.10;99.90
31729;DHT22;18309;43.658;1.312;2023-02-15T08:03:45;6.80;99.90
31729;DHT22;18309;43.658;1.312;2023-02-15T08:06:11;6.70;99.90
31729;DHT22;18309;43.658;1.312;2023-02-15T08:08:39;6.60;99.90
31729;DHT22;18309;43.658;1.312;2023-02-15T08:11:05;6.50;99.90
31729;DHT22;18309;43.658;1.312;2023-02-15T08:13:54;6.40;99.90
31729;DHT22;18309;43.658;1.312;2023-02-15T08:16:49;6.50;99.90
31729;DHT22;18309;43.658;1.312;2023-02-15T08:19:20;6.60;99.90
31729;DHT22;18309;43.658;1.312;2023-02-15T08:21:55;6.60;99.90
31729;DHT22;18309;43.658;1.312;2023-02-15T08:24:24;6.60;99.90
31729;DHT22;18309;43.658;1.312;2023-02-15T08:26:50;6.70;99.90
31729;DHT22;18309;43.658;1.312;2023-02-15T08:29:19;6.80;99.90
31729;DHT22;18309;43.658;1.312;2023-02-15T08:31:45;7.00;99.90
31729;DHT22;18309;43.658;1.312;2023-02-15T08:34:15;7.10;99.90
31729;DHT22;18309;43.658;1.312;2023-02-15T08:36:41;7.30;99.90
31729;DHT22;18309;43.658;1.312;2023-02-15T08:39:07;7.40;99.90
31729;DHT22;18309;43.658;1.312;2023-02-15T08:41:38;7.60;99.90
31729;DHT22;18309;43.658;1.312;2023-02-15T08:44:06;7.70;99.90
31729;DHT22;18309;43.658;1.312;2023-02-15T08:46:37;7.80;99.90
31729;DHT22;18309;43.658;1.312;2023-02-15T08:49:04;7.90;99.90
31729;DHT22;18309;43.658;1.312;2023-02-15T08:51:32;8.10;99.90
31729;DHT22;18309;43.658;1.312;2023-02-15T08:54:01;8.30;99.90
31729;DHT22;18309;43.658;1.312;2023-02-15T08:56:29;8.50;99.90
31729;DHT22;18309;43.658;1.312;2023-02-15T08:58:56;8.90;99.90
31729;DHT22;18309;43.658;1.312;2023-02-15T09:01:24;9.20;99.90
31729;DHT22;18309;43.658;1.312;2023-02-15T09:03:54;9.40;99.90
31729;DHT22;18309;43.658;1.312;2023-02-15T09:06:21;9.60;99.90
31729;DHT22;18309;43.658;1.312;2023-02-15T09:08:47;9.80;99.90
31729;DHT22;18309;43.658;1.312;2023-02-15T09:11:17;9.90;99.90
31729;DHT22;18309;43.658;1.312;2023-02-15T09:13:55;10.00;99.90
31729;DHT22;18309;43.658;1.312;2023-02-15T09:16:22;10.00;99.90
31729;DHT22;18309;43.658;1.312;2023-02-15T09:18:48;10.10;99.90
31729;DHT22;18309;43.658;1.312;2023-02-15T09:21:17;10.30;99.90
31729;DHT22;18309;43.658;1.312;2023-02-15T09:23:45;10.40;99.90
31729;DHT22;18309;43.658;1.312;2023-02-15T09:26:15;10.60;99.90
31729;DHT22;18309;43.658;1.312;2023-02-15T09:28:42;10.70;99.90
31729;DHT22;18309;43.658;1.312;2023-02-15T09:31:19;10.60;99.90
31729;DHT22;18309;43.658;1.312;2023-02-15T09:33:47;10.60;99.90
31729;DHT22;18309;43.658;1.312;2023-02-15T09:36:22;10.60;99.90
31729;DHT22;18309;43.658;1.312;2023-02-15T09:38:58;10.60;99.90
31729;DHT22;18309;43.658;1.312;2023-02-15T09:52:20;11.30;99.90
31729;DHT22;18309;43.658;1.312;2023-02-15T10:01:07;11.70;99.80
31729;DHT22;18309;43.658;1.312;2023-02-15T10:23:25;12.40;98.20
31729;DHT22;18309;43.658;1.312;2023-02-15T10:31:43;12.50;97.90
31729;DHT22;18309;43.658;1.312;2023-02-15T10:34:17;12.40;97.40
31729;DHT22;18309;43.658;1.312;2023-02-15T10:56:20;12.90;96.30
31729;DHT22;18309;43.658;1.312;2023-02-15T10:59:02;12.80;96.50
31729;DHT22;18309;43.658;1.312;2023-02-15T11:07:19;13.30;96.60
31729;DHT22;18309;43.658;1.312;2023-02-15T11:10:13;13.20;95.50
31729;DHT22;18309;43.658;1.312;2023-02-15T11:12:44;13.30;95.70
31729;DHT22;18309;43.658;1.312;2023-02-15T11:15:20;13.50;95.20
31729;DHT22;18309;43.658;1.312;2023-02-15T11:17:56;13.50;95.10
31729;DHT22;18309;43.658;1.312;2023-02-15T11:22:51;13.80;94.90
31729;DHT22;18309;43.658;1.312;2023-02-15T11:25:29;13.80;94.10
31729;DHT22;18309;43.658;1.312;2023-02-15T11:27:56;13.90;94.70
31729;DHT22;18309;43.658;1.312;2023-02-15T11:30:31;14.00;94.20
31729;DHT22;18309;43.658;1.312;2023-02-15T11:33:01;13.90;94.20
31729;DHT22;18309;43.658;1.312;2023-02-15T11:35:44;14.00;93.70
31729;DHT22;18309;43.658;1.312;2023-02-15T11:38:19;14.00;94.10
31729;DHT22;18309;43.658;1.312;2023-02-15T11:40:49;14.20;94.00
31729;DHT22;18309;43.658;1.312;2023-02-15T11:43:38;14.20;93.80
31729;DHT22;18309;43.658;1.312;2023-02-15T11:46:05;14.30;93.60
31729;DHT22;18309;43.658;1.312;2023-02-15T11:48:33;14.40;92.70
31729;DHT22;18309;43.658;1.312;2023-02-15T11:51:00;14.40;92.60
31729;DHT22;18309;43.658;1.312;2023-02-15T11:53:31;14.50;92.30
31729;DHT22;18309;43.658;1.312;2023-02-15T11:55:57;14.60;92.10
31729;DHT22;18309;43.658;1.312;2023-02-15T11:58:35;14.80;92.30
31729;DHT22;18309;43.658;1.312;2023-02-15T12:01:32;14.80;91.70
31729;DHT22;18309;43.658;1.312;2023-02-15T12:07:14;15.10;91.60
31729;DHT22;18309;43.658;1.312;2023-02-15T12:12:30;15.10;90.60
31729;DHT22;18309;43.658;1.312;2023-02-15T12:14:58;15.30;90.80
31729;DHT22;18309;43.658;1.312;2023-02-15T12:17:27;15.40;90.00
31729;DHT22;18309;43.658;1.312;2023-02-15T12:20:00;15.40;89.70
31729;DHT22;18309;43.658;1.312;2023-02-15T12:22:36;15.60;90.00
31729;DHT22;18309;43.658;1.312;2023-02-15T12:25:20;15.70;90.40
31729;DHT22;18309;43.658;1.312;2023-02-15T12:27:47;15.70;90.40
31729;DHT22;18309;43.658;1.312;2023-02-15T12:30:46;16.00;88.90
31729;DHT22;18309;43.658;1.312;2023-02-15T12:33:36;16.20;87.40
31729;DHT22;18309;43.658;1.312;2023-02-15T12:36:41;16.80;86.20
31729;DHT22;18309;43.658;1.312;2023-02-15T12:41:46;18.40;79.80
31729;DHT22;18309;43.658;1.312;2023-02-15T12:44:38;21.80;70.60
31729;DHT22;18309;43.658;1.312;2023-02-15T12:49:38;25.70;59.90
31729;DHT22;18309;43.658;1.312;2023-02-15T12:52:06;26.40;56.90
31729;DHT22;18309;43.658;1.312;2023-02-15T12:54:48;27.00;56.70
31729;DHT22;18309;43.658;1.312;2023-02-15T13:03:02;26.40;56.50
31729;DHT22;18309;43.658;1.312;2023-02-15T13:08:04;26.20;55.10
31729;DHT22;18309;43.658;1.312;2023-02-15T13:10:37;26.60;54.30
31729;DHT22;18309;43.658;1.312;2023-02-15T13:13:15;28.30;51.60
31729;DHT22;18309;43.658;1.312;2023-02-15T13:15:48;29.60;50.20
31729;DHT22;18309;43.658;1.312;2023-02-15T13:18:19;30.20;49.50
31729;DHT22;18309;43.658;1.312;2023-02-15T13:20:45;30.40;49.70
31729;DHT22;18309;43.658;1.312;2023-02-15T13:23:27;30.20;48.60
31729;DHT22;18309;43.658;1.312;2023-02-15T13:25:58;29.80;48.40
31729;DHT22;18309;43.658;1.312;2023-02-15T13:28:48;28.10;50.10
31729;DHT22;18309;43.658;1.312;2023-02-15T13:31:19;26.50;52.30
31729;DHT22;18309;43.658;1.312;2023-02-15T13:33:58;28.10;51.40
31729;DHT22;18309;43.658;1.312;2023-02-15T13:42:31;30.70;47.40
31729;DHT22;18309;43.658;1.312;2023-02-15T13:45:09;30.10;48.30
31729;DHT22;18309;43.658;1.312;2023-02-15T13:47:53;31.30;47.10
31729;DHT22;18309;43.658;1.312;2023-02-15T13:56:19;32.10;44.80
31729;DHT22;18309;43.658;1.312;2023-02-15T14:06:57;33.80;42.70
31729;DHT22;18309;43.658;1.312;2023-02-15T14:18:25;32.40;42.40
31729;DHT22;18309;43.658;1.312;2023-02-15T14:21:19;30.70;45.60
31729;DHT22;18309;43.658;1.312;2023-02-15T14:26:56;30.60;44.40
31729;DHT22;18309;43.658;1.312;2023-02-15T14:32:26;32.00;42.50
31729;DHT22;18309;43.658;1.312;2023-02-15T14:34:56;32.40;42.80
31729;DHT22;18309;43.658;1.312;2023-02-15T14:43:38;32.10;42.80
31729;DHT22;18309;43.658;1.312;2023-02-15T14:49:12;34.50;40.50
31729;DHT22;18309;43.658;1.312;2023-02-15T15:02:16;32.50;41.90
31729;DHT22;18309;43.658;1.312;2023-02-15T15:05:08;32.60;42.10
31729;DHT22;18309;43.658;1.312;2023-02-15T15:12:54;32.90;40.80
31729;DHT22;18309;43.658;1.312;2023-02-15T15:25:44;32.20;40.50
31729;DHT22;18309;43.658;1.312;2023-02-15T15:31:42;31.40;41.60
31729;DHT22;18309;43.658;1.312;2023-02-15T15:39:43;29.40;43.30
31729;DHT22;18309;43.658;1.312;2023-02-15T15:50:21;31.10;41.60
31729;DHT22;18309;43.658;1.312;2023-02-15T15:52:54;30.30;43.30
31729;DHT22;18309;43.658;1.312;2023-02-15T15:55:23;27.90;46.30
31729;DHT22;18309;43.658;1.312;2023-02-15T15:57:55;24.80;51.60
31729;DHT22;18309;43.658;1.312;2023-02-15T16:00:47;22.90;55.80
31729;DHT22;18309;43.658;1.312;2023-02-15T16:05:41;20.20;61.50
31729;DHT22;18309;43.658;1.312;2023-02-15T16:08:07;19.40;64.50
31729;DHT22;18309;43.658;1.312;2023-02-15T16:10:33;19.10;66.90
31729;DHT22;18309;43.658;1.312;2023-02-15T16:13:00;18.90;67.10
31729;DHT22;18309;43.658;1.312;2023-02-15T16:15:35;18.30;69.00
31729;DHT22;18309;43.658;1.312;2023-02-15T16:18:02;18.00;70.60
31729;DHT22;18309;43.658;1.312;2023-02-15T16:20:34;17.80;71.00
31729;DHT22;18309;43.658;1.312;2023-02-15T16:29:00;17.10;74.20
31729;DHT22;18309;43.658;1.312;2023-02-15T16:31:28;16.80;74.70
31729;DHT22;18309;43.658;1.312;2023-02-15T16:33:54;16.60;75.80
31729;DHT22;18309;43.658;1.312;2023-02-15T16:36:26;16.60;76.20
31729;DHT22;18309;43.658;1.312;2023-02-15T16:41:28;16.30;78.00
31729;DHT22;18309;43.658;1.312;2023-02-15T16:43:58;16.00;78.30
31729;DHT22;18309;43.658;1.312;2023-02-15T16:46:26;15.90;79.00
31729;DHT22;18309;43.658;1.312;2023-02-15T16:48:55;15.60;79.30
31729;DHT22;18309;43.658;1.312;2023-02-15T16:51:29;15.40;80.00
31729;DHT22;18309;43.658;1.312;2023-02-15T16:53:56;15.20;80.70
31729;DHT22;18309;43.658;1.312;2023-02-15T16:56:29;15.10;81.60
31729;DHT22;18309;43.658;1.312;2023-02-15T16:58:57;15.00;82.10
31729;DHT22;18309;43.658;1.312;2023-02-15T17:01:29;14.80;82.60
31729;DHT22;18309;43.658;1.312;2023-02-15T17:04:31;14.70;83.20
31729;DHT22;18309;43.658;1.312;2023-02-15T17:09:26;14.40;84.40
31729;DHT22;18309;43.658;1.312;2023-02-15T17:11:52;14.20;85.10
31729;DHT22;18309;43.658;1.312;2023-02-15T17:14:27;14.10;86.50
31729;DHT22;18309;43.658;1.312;2023-02-15T17:16:58;13.90;87.50
31729;DHT22;18309;43.658;1.312;2023-02-15T17:19:30;13.70;88.00
31729;DHT22;18309;43.658;1.312;2023-02-15T17:21:59;13.60;88.80
31729;DHT22;18309;43.658;1.312;2023-02-15T17:24:34;13.40;89.50
31729;DHT22;18309;43.658;1.312;2023-02-15T17:27:07;13.20;90.00
31729;DHT22;18309;43.658;1.312;2023-02-15T17:29:43;13.00;90.50
31729;DHT22;18309;43.658;1.312;2023-02-15T17:32:19;12.90;90.90
31729;DHT22;18309;43.658;1.312;2023-02-15T17:39:54;12.50;92.00
31729;DHT22;18309;43.658;1.312;2023-02-15T17:42:23;12.40;92.30
31729;DHT22;18309;43.658;1.312;2023-02-15T17:44:49;12.30;92.60
31729;DHT22;18309;43.658;1.312;2023-02-15T17:47:18;12.10;92.90
31729;DHT22;18309;43.658;1.312;2023-02-15T17:49:44;12.00;93.30
31729;DHT22;18309;43.658;1.312;2023-02-15T17:52:13;11.90;93.50
31729;DHT22;18309;43.658;1.312;2023-02-15T17:54:40;11.80;93.80
31729;DHT22;18309;43.658;1.312;2023-02-15T17:57:24;12.30;95.20
31729;DHT22;18309;43.658;1.312;2023-02-15T17:59:54;12.80;93.60
31729;DHT22;18309;43.658;1.312;2023-02-15T18:02:38;13.10;92.40
31729;DHT22;18309;43.658;1.312;2023-02-15T18:05:23;13.40;91.60
31729;DHT22;18309;43.658;1.312;2023-02-15T18:08:12;13.60;91.10
31729;DHT22;18309;43.658;1.312;2023-02-15T18:10:57;13.70;90.70
31729;DHT22;18309;43.658;1.312;2023-02-15T18:13:41;13.80;90.50
31729;DHT22;18309;43.658;1.312;2023-02-15T18:16:21;14.00;90.60
31729;DHT22;18309;43.658;1.312;2023-02-15T18:18:47;14.00;90.10
31729;DHT22;18309;43.658;1.312;2023-02-15T18:21:12;14.10;90.00
31729;DHT22;18309;43.658;1.312;2023-02-15T18:23:39;14.20;90.00
31729;DHT22;18309;43.658;1.312;2023-02-15T18:26:05;14.20;90.00
31729;DHT22;18309;43.658;1.312;2023-02-15T18:28:32;14.20;89.90
31729;DHT22;18309;43.658;1.312;2023-02-15T18:30:58;14.20;89.90
31729;DHT22;18309;43.658;1.312;2023-02-15T18:33:33;14.20;89.90
31729;DHT22;18309;43.658;1.312;2023-02-15T18:36:04;14.20;89.90
31729;DHT22;18309;43.658;1.312;2023-02-15T18:38:31;14.10;89.80
31729;DHT22;18309;43.658;1.312;2023-02-15T18:40:57;14.20;89.90
31729;DHT22;18309;43.658;1.312;2023-02-15T18:43:22;14.20;90.00
31729;DHT22;18309;43.658;1.312;2023-02-15T18:45:48;14.20;90.00
31729;DHT22;18309;43.658;1.312;2023-02-15T18:48:14;14.10;89.90
31729;DHT22;18309;43.658;1.312;2023-02-15T18:50:40;14.10;90.00
31729;DHT22;18309;43.658;1.312;2023-02-15T18:53:11;14.10;90.00
31729;DHT22;18309;43.658;1.312;2023-02-15T18:55:38;14.10;90.00
31729;DHT22;18309;43.658;1.312;2023-02-15T18:58:16;14.00;90.00
31729;DHT22;18309;43.658;1.312;2023-02-15T19:00:42;14.00;90.10
31729;DHT22;18309;43.658;1.312;2023-02-15T19:03:12;14.00;90.00
31729;DHT22;18309;43.658;1.312;2023-02-15T19:05:37;14.00;90.10
31729;DHT22;18309;43.658;1.312;2023-02-15T19:08:14;14.00;90.10
31729;DHT22;18309;43.658;1.312;2023-02-15T19:10:41;13.90;90.10
31729;DHT22;18309;43.658;1.312;2023-02-15T19:13:11;13.90;90.20
31729;DHT22;18309;43.658;1.312;2023-02-15T19:15:37;13.90;90.30
31729;DHT22;18309;43.658;1.312;2023-02-15T19:18:04;13.90;90.30
31729;DHT22;18309;43.658;1.312;2023-02-15T19:20:41;13.80;90.40
31729;DHT22;18309;43.658;1.312;2023-02-15T19:23:14;13.80;90.40
31729;DHT22;18309;43.658;1.312;2023-02-15T19:25:43;13.80;90.40
31729;DHT22;18309;43.658;1.312;2023-02-15T19:28:18;13.80;90.50
31729;DHT22;18309;43.658;1.312;2023-02-15T19:30:46;13.70;90.60
31729;DHT22;18309;43.658;1.312;2023-02-15T19:33:17;13.60;90.60
31729;DHT22;18309;43.658;1.312;2023-02-15T19:35:45;13.60;90.60
31729;DHT22;18309;43.658;1.312;2023-02-15T19:38:17;13.50;90.90
31729;DHT22;18309;43.658;1.312;2023-02-15T19:40:44;13.50;90.70
31729;DHT22;18309;43.658;1.312;2023-02-15T19:43:16;13.50;90.80
31729;DHT22;18309;43.658;1.312;2023-02-15T19:45:42;13.40;90.90
31729;DHT22;18309;43.658;1.312;2023-02-15T19:48:11;13.40;91.00
31729;DHT22;18309;43.658;1.312;2023-02-15T19:50:37;13.40;90.90
31729;DHT22;18309;43.658;1.312;2023-02-15T19:53:03;13.30;90.90